Alpine Link — V7SZ7 — position and weather

sailwx.info

Track history (hours):
 
Tides and Currents Weather Stations Pressure Air Temp Water Temp Dewpoint Dewpoint Depression Visibility Wind Speed Wind Dir Waves Ship Positions

Alpine Link

Last reported at 2017-Mar-22 08:15 UTC. Time now 2017-Mar-26 19:02 UTC.
Position S 00°05' W 047°49'.

Length 183 m; draft 9.2 m.

Type: Tanker. MMSI: 538003758.

Date/timePositionNaut miles runAvg speedWind from/ knotsBaromVisibWave heightAir tempDewpointWater temp
2017-Mar-22 08:15S 00°05' W 047°49'913.3
2017-Mar-22 07:34S 00°15' W 047°49'8 8.4
2017-Mar-22 06:34S 00°23' W 047°47'1 1.4
2017-Mar-22 05:34S 00°21' W 047°48'1110.8
2017-Mar-22 04:34S 00°11' W 047°49'183 8.2
2017-Mar-21 06:18N 00°10' W 050°50'912.6
2017-Mar-21 05:33N 00°06' W 050°59'1211.5
2017-Mar-21 04:33S 00°03' W 051°05'1 0.7
2017-Mar-21 03:26S 00°04' W 051°06'0 0.0
2017-Mar-21 02:32S 00°04' W 051°06'0 0.0
2017-Mar-21 01:32S 00°04' W 051°06'0 0.5
2017-Mar-21 00:33S 00°04' W 051°05'5 4.9
2017-Mar-20 23:27S 00°02' W 051°00'1112.0
2017-Mar-20 22:33S 00°13' W 051°02'  
Track history (hours):
 
Tides and Currents Weather Stations Pressure Air Temp Water Temp Dewpoint Dewpoint Depression Visibility Wind Speed Wind Dir Waves Ship Positions

Alpine Link

Last reported at 2017-Mar-22 08:15 UTC. Time now 2017-Mar-26 19:02 UTC.
Position S 00°05' W 047°49'.

Length 183 m; draft 9.2 m.

Type: Tanker. MMSI: 538003758.

Date/timePositionNaut miles runAvg speedWind from/ knotsBaromVisibWave heightAir tempDewpointWater temp
2017-Mar-22 08:15S 00°05' W 047°49'913.3
2017-Mar-22 07:34S 00°15' W 047°49'8 8.4
2017-Mar-22 06:34S 00°23' W 047°47'1 1.4
2017-Mar-22 05:34S 00°21' W 047°48'1110.8
2017-Mar-22 04:34S 00°11' W 047°49'183 8.2
2017-Mar-21 06:18N 00°10' W 050°50'912.6
2017-Mar-21 05:33N 00°06' W 050°59'1211.5
2017-Mar-21 04:33S 00°03' W 051°05'1 0.7
2017-Mar-21 03:26S 00°04' W 051°06'0 0.0
2017-Mar-21 02:32S 00°04' W 051°06'0 0.0
2017-Mar-21 01:32S 00°04' W 051°06'0 0.5
2017-Mar-21 00:33S 00°04' W 051°05'5 4.9
2017-Mar-20 23:27S 00°02' W 051°00'1112.0
2017-Mar-20 22:33S 00°13' W 051°02'  

Dump ship's entire track history